Time,TemperatureF,DewpointF,PressureIn,WindDirection,WindDirectionDegrees,WindSpeedMPH,WindSpeedGustMPH,Humidity,HourlyPrecipIn,Conditions,Clouds,dailyrainin,SoftwareType,DateUTC
2013-03-25 00:03:00,38.0,7.0,29.94,ESE,110,0.0,0.0,27,0.00,,,0.00,,2013-03-25 05:03:00,
2013-03-25 00:12:00,38.0,7.0,29.94,ESE,110,0.0,0.0,27,0.00,,,0.00,,2013-03-25 05:12:00,
2013-03-25 00:22:00,37.0,7.0,29.95,ESE,110,0.0,0.0,28,0.00,,,0.00,,2013-03-25 05:22:00,
2013-03-25 00:32:00,37.0,7.0,29.95,ESE,110,0.0,0.0,28,0.00,,,0.00,,2013-03-25 05:32:00,
2013-03-25 00:42:00,37.0,7.0,29.95,ESE,110,0.0,0.0,28,0.00,,,0.00,,2013-03-25 05:42:00,
2013-03-25 00:52:00,36.0,6.0,29.94,ESE,110,0.0,0.0,28,0.00,,,0.00,,2013-03-25 05:52:00,
2013-03-25 01:02:00,36.0,6.0,29.94,ESE,110,0.0,0.0,28,0.00,,,0.00,,2013-03-25 06:02:00,
2013-03-25 01:12:00,36.0,6.0,29.94,ESE,110,0.0,0.0,28,0.00,,,0.00,,2013-03-25 06:12:00,
2013-03-25 01:22:00,35.0,5.0,29.94,ESE,109,0.0,0.0,28,0.00,,,0.00,,2013-03-25 06:22:00,
2013-03-25 01:32:00,35.0,5.0,29.94,ESE,109,0.0,0.0,28,0.00,,,0.00,,2013-03-25 06:32:00,
2013-03-25 01:42:00,35.0,5.0,29.94,ESE,109,0.0,0.0,28,0.00,,,0.00,,2013-03-25 06:42:00,
2013-03-25 01:52:00,34.0,5.0,29.94,ESE,110,0.0,0.0,29,0.00,,,0.00,,2013-03-25 06:52:00,
2013-03-25 02:02:00,34.0,5.0,29.94,ESE,110,0.0,0.0,29,0.00,,,0.00,,2013-03-25 07:02:00,
2013-03-25 02:12:00,34.0,5.0,29.94,ESE,110,0.0,0.0,29,0.00,,,0.00,,2013-03-25 07:12:00,
2013-03-25 02:22:00,34.0,7.0,29.94,ESE,110,0.0,0.0,31,0.00,,,0.00,,2013-03-25 07:22:00,
2013-03-25 02:32:00,34.0,7.0,29.94,ESE,110,0.0,0.0,31,0.00,,,0.00,,2013-03-25 07:32:00,
2013-03-25 02:42:00,34.0,7.0,29.94,ESE,110,0.0,0.0,31,0.00,,,0.00,,2013-03-25 07:42:00,
2013-03-25 02:53:00,33.0,6.0,29.93,ESE,110,0.0,0.0,31,0.00,,,0.00,,2013-03-25 07:53:00,
2013-03-25 03:02:00,33.0,6.0,29.93,ESE,110,0.0,0.0,31,0.00,,,0.00,,2013-03-25 08:02:00,
2013-03-25 03:12:00,33.0,6.0,29.93,ESE,110,0.0,0.0,31,0.00,,,0.00,,2013-03-25 08:12:00,
2013-03-25 03:22:00,33.0,6.0,29.94,ESE,110,0.0,0.0,32,0.00,,,0.00,,2013-03-25 08:22:00,
2013-03-25 03:32:00,33.0,6.0,29.94,ESE,110,0.0,0.0,32,0.00,,,0.00,,2013-03-25 08:32:00,
2013-03-25 03:43:00,33.0,6.0,29.94,ESE,110,0.0,0.0,32,0.00,,,0.00,,2013-03-25 08:43:00,
2013-03-25 03:52:00,34.0,7.0,29.93,NNW,336,0.0,0.0,31,0.00,,,0.00,,2013-03-25 08:52:00,
2013-03-25 04:02:00,34.0,7.0,29.93,NNW,336,0.0,0.0,31,0.00,,,0.00,,2013-03-25 09:02:00,
2013-03-25 04:12:00,34.0,7.0,29.93,NNW,336,0.0,0.0,31,0.00,,,0.00,,2013-03-25 09:12:00,
2013-03-25 04:22:00,33.0,6.0,29.93,NNW,336,0.0,0.0,31,0.00,,,0.00,,2013-03-25 09:22:00,
2013-03-25 04:32:00,33.0,6.0,29.93,NNW,336,0.0,0.0,31,0.00,,,0.00,,2013-03-25 09:32:00,
2013-03-25 04:43:00,33.0,6.0,29.93,NNW,336,0.0,0.0,31,0.00,,,0.00,,2013-03-25 09:43:00,
2013-03-25 04:52:00,33.0,6.0,29.93,NNW,336,0.0,0.0,32,0.00,,,0.00,,2013-03-25 09:52:00,
2013-03-25 05:03:00,33.0,6.0,29.93,NNW,336,0.0,0.0,32,0.00,,,0.00,,2013-03-25 10:03:00,
2013-03-25 05:12:00,33.0,6.0,29.93,NNW,336,0.0,0.0,32,0.00,,,0.00,,2013-03-25 10:12:00,
2013-03-25 05:22:00,33.0,6.0,29.93,NNW,336,0.0,0.0,32,0.00,,,0.00,,2013-03-25 10:22:00,
2013-03-25 05:30:00,32.0,7.0,29.95,NNW,336,0.0,0.0,34,0.00,,,0.00,,2013-03-25 10:30:00,
2013-03-25 05:32:00,33.0,6.0,29.93,NNW,336,0.0,0.0,32,0.00,,,0.00,,2013-03-25 10:32:00,
2013-03-25 05:43:00,33.0,6.0,29.93,NNW,336,0.0,0.0,32,0.00,,,0.00,,2013-03-25 10:43:00,
2013-03-25 05:54:00,32.0,7.0,29.95,NNW,336,0.0,0.0,34,0.00,,,0.00,,2013-03-25 10:54:00,
2013-03-25 06:03:00,32.0,7.0,29.95,NNW,336,0.0,0.0,34,0.00,,,0.00,,2013-03-25 11:03:00,
2013-03-25 06:12:00,32.0,7.0,29.95,NNW,336,0.0,0.0,34,0.00,,,0.00,,2013-03-25 11:12:00,
2013-03-25 06:23:00,32.0,7.0,29.95,NNW,336,0.0,0.0,34,0.00,,,0.00,,2013-03-25 11:23:00,
2013-03-25 06:53:00,33.0,6.0,29.98,ENE,59,0.0,0.0,32,0.00,,,0.00,,2013-03-25 11:53:00,
2013-03-25 07:02:00,33.0,6.0,29.98,ENE,59,0.0,0.0,32,0.00,,,0.00,,2013-03-25 12:02:00,
2013-03-25 07:13:00,33.0,6.0,29.98,ENE,59,0.0,0.0,32,0.00,,,0.00,,2013-03-25 12:13:00,
2013-03-25 07:23:00,33.0,6.0,30.00,NE,56,0.0,0.0,32,0.00,,,0.00,,2013-03-25 12:23:00,
2013-03-25 07:30:00,32.0,9.0,30.02,ESE,114,0.0,0.0,38,0.00,,,0.00,,2013-03-25 12:30:00,
2013-03-25 07:32:00,33.0,6.0,30.00,NE,56,0.0,0.0,32,0.00,,,0.00,,2013-03-25 12:32:00,
2013-03-25 07:43:00,33.0,6.0,30.00,NE,56,0.0,0.0,32,0.00,,,0.00,,2013-03-25 12:43:00,
2013-03-25 07:53:00,32.0,9.0,30.02,ESE,114,0.0,0.0,38,0.00,,,0.00,,2013-03-25 12:53:00,
2013-03-25 08:02:00,32.0,9.0,30.02,ESE,114,0.0,0.0,38,0.00,,,0.00,,2013-03-25 13:02:00,
2013-03-25 08:13:00,32.0,9.0,30.02,ESE,114,0.0,0.0,38,0.00,,,0.00,,2013-03-25 13:13:00,
2013-03-25 08:22:00,32.0,9.0,30.02,ESE,114,0.0,0.0,38,0.00,,,0.00,,2013-03-25 13:22:00,
2013-03-25 08:30:00,29.0,7.0,30.06,ESE,106,0.0,0.0,39,0.00,,,0.00,,2013-03-25 13:30:00,
2013-03-25 08:52:00,29.0,7.0,30.06,ESE,106,0.0,0.0,39,0.00,,,0.00,,2013-03-25 13:52:00,
2013-03-25 09:03:00,29.0,7.0,30.06,ESE,106,0.0,0.0,39,0.00,,,0.00,,2013-03-25 14:03:00,
2013-03-25 09:12:00,29.0,7.0,30.06,ESE,106,0.0,0.0,39,0.00,,,0.00,,2013-03-25 14:12:00,
2013-03-25 09:22:00,29.0,7.0,30.06,ESE,106,0.0,0.0,39,0.00,,,0.00,,2013-03-25 14:22:00,
2013-03-25 09:53:00,35.0,10.0,30.09,East,86,4.0,14.0,35,0.00,,,0.00,,2013-03-25 14:53:00,
2013-03-25 10:02:00,35.0,10.0,30.09,East,86,4.0,14.0,35,0.00,,,0.00,,2013-03-25 15:02:00,
2013-03-25 10:12:00,35.0,10.0,30.09,East,86,4.0,14.0,35,0.00,,,0.00,,2013-03-25 15:12:00,
2013-03-25 10:22:00,36.0,11.0,30.11,ESE,120,4.0,8.0,35,0.00,,,0.00,,2013-03-25 15:22:00,
2013-03-25 10:32:00,36.0,11.0,30.11,ESE,120,4.0,8.0,35,0.00,,,0.00,,2013-03-25 15:32:00,
2013-03-25 10:43:00,36.0,11.0,30.11,ESE,120,4.0,8.0,35,0.00,,,0.00,,2013-03-25 15:43:00,
2013-03-25 10:53:00,39.0,13.0,30.11,East,89,2.0,11.0,34,0.00,,,0.00,,2013-03-25 15:53:00,
2013-03-25 11:00:00,40.0,13.0,30.12,SE,145,1.0,9.0,33,0.00,,,0.00,,2013-03-25 16:00:00,
2013-03-25 11:03:00,39.0,13.0,30.11,East,89,2.0,11.0,34,0.00,,,0.00,,2013-03-25 16:03:00,
2013-03-25 11:12:00,39.0,13.0,30.11,East,89,2.0,11.0,34,0.00,,,0.00,,2013-03-25 16:12:00,
2013-03-25 11:23:00,39.0,13.0,30.11,East,89,2.0,11.0,34,0.00,,,0.00,,2013-03-25 16:23:00,
2013-03-25 11:33:00,40.0,13.0,30.12,SE,145,1.0,9.0,33,0.00,,,0.00,,2013-03-25 16:33:00,
2013-03-25 11:43:00,40.0,13.0,30.12,SE,145,1.0,9.0,33,0.00,,,0.00,,2013-03-25 16:43:00,
2013-03-25 11:53:00,40.0,13.0,30.12,SE,145,1.0,9.0,33,0.00,,,0.00,,2013-03-25 16:53:00,
2013-03-25 13:23:00,46.0,14.0,30.11,ENE,66,2.0,10.0,27,0.00,,,0.00,,2013-03-25 18:23:00,
2013-03-25 13:30:00,48.0,15.0,30.11,ESE,110,3.0,11.0,26,0.00,,,0.00,,2013-03-25 18:30:00,
2013-03-25 13:33:00,46.0,14.0,30.11,ENE,66,2.0,10.0,27,0.00,,,0.00,,2013-03-25 18:33:00,
2013-03-25 13:43:00,46.0,14.0,30.11,ENE,66,2.0,10.0,27,0.00,,,0.00,,2013-03-25 18:43:00,
2013-03-25 13:53:00,48.0,15.0,30.11,ESE,110,3.0,11.0,26,0.00,,,0.00,,2013-03-25 18:53:00,
2013-03-25 14:03:00,48.0,15.0,30.11,ESE,110,3.0,11.0,26,0.00,,,0.00,,2013-03-25 19:03:00,
2013-03-25 14:12:00,48.0,15.0,30.11,ESE,110,3.0,11.0,26,0.00,,,0.00,,2013-03-25 19:12:00,
2013-03-25 14:22:00,48.0,15.0,30.11,ESE,110,3.0,11.0,26,0.00,,,0.00,,2013-03-25 19:22:00,
2013-03-25 15:22:00,52.0,15.0,30.06,East,96,1.0,10.0,23,0.00,,,0.00,,2013-03-25 20:22:00,
2013-03-25 15:32:00,52.0,15.0,30.06,East,96,1.0,10.0,23,0.00,,,0.00,,2013-03-25 20:32:00,
2013-03-25 15:42:00,52.0,15.0,30.06,East,96,1.0,10.0,23,0.00,,,0.00,,2013-03-25 20:42:00,
2013-03-25 15:52:00,53.0,15.0,30.05,East,85,0.0,13.0,22,0.00,,,0.00,,2013-03-25 20:52:00,
2013-03-25 16:00:00,54.0,15.0,30.06,SE,143,0.0,3.0,21,0.00,,,0.00,,2013-03-25 21:00:00,
2013-03-25 16:02:00,53.0,15.0,30.05,East,85,0.0,13.0,22,0.00,,,0.00,,2013-03-25 21:02:00,
2013-03-25 16:12:00,53.0,15.0,30.05,East,85,0.0,13.0,22,0.00,,,0.00,,2013-03-25 21:12:00,
2013-03-25 16:22:00,54.0,15.0,30.06,SE,143,0.0,3.0,21,0.00,,,0.00,,2013-03-25 21:22:00,
2013-03-25 16:33:00,54.0,15.0,30.06,SE,143,0.0,3.0,21,0.00,,,0.00,,2013-03-25 21:33:00,
2013-03-25 16:43:00,54.0,15.0,30.06,SE,143,0.0,3.0,21,0.00,,,0.00,,2013-03-25 21:43:00,
2013-03-25 16:52:00,54.0,15.0,30.06,SE,143,0.0,3.0,21,0.00,,,0.00,,2013-03-25 21:52:00,
2013-03-25 17:24:00,55.0,16.0,30.04,ESE,102,5.0,10.0,21,0.00,,,0.00,,2013-03-25 22:24:00,
2013-03-25 17:33:00,55.0,16.0,30.04,ESE,102,5.0,10.0,21,0.00,,,0.00,,2013-03-25 22:33:00,
2013-03-25 17:42:00,55.0,16.0,30.04,ESE,102,5.0,10.0,21,0.00,,,0.00,,2013-03-25 22:42:00,
2013-03-25 17:52:00,55.0,16.0,30.04,SE,137,2.0,12.0,21,0.00,,,0.00,,2013-03-25 22:52:00,
2013-03-25 18:02:00,55.0,16.0,30.04,SE,137,2.0,12.0,21,0.00,,,0.00,,2013-03-25 23:02:00,
2013-03-25 18:12:00,55.0,16.0,30.04,SE,137,2.0,12.0,21,0.00,,,0.00,,2013-03-25 23:12:00,
2013-03-25 18:23:00,54.0,16.0,30.02,ESE,109,1.0,7.0,22,0.00,,,0.00,,2013-03-25 23:23:00,
2013-03-25 18:43:00,54.0,16.0,30.02,ESE,109,1.0,7.0,22,0.00,,,0.00,,2013-03-25 23:43:00,
2013-03-25 18:52:00,54.0,15.0,30.03,NW,318,0.0,10.0,21,0.00,,,0.00,,2013-03-25 23:52:00,
2013-03-25 19:02:00,54.0,15.0,30.03,NW,318,0.0,10.0,21,0.00,,,0.00,,2013-03-26 00:02:00,
2013-03-25 19:12:00,54.0,15.0,30.03,NW,318,0.0,10.0,21,0.00,,,0.00,,2013-03-26 00:12:00,
2013-03-25 19:22:00,53.0,16.0,30.06,East,90,2.0,9.0,23,0.00,,,0.00,,2013-03-26 00:22:00,
2013-03-25 19:32:00,53.0,16.0,30.06,East,90,2.0,9.0,23,0.00,,,0.00,,2013-03-26 00:32:00,
2013-03-25 19:43:00,53.0,16.0,30.06,East,90,2.0,9.0,23,0.00,,,0.00,,2013-03-26 00:43:00,
2013-03-25 19:52:00,51.0,16.0,30.05,SE,145,0.0,8.0,24,0.00,,,0.00,,2013-03-26 00:52:00,
2013-03-25 20:02:00,51.0,16.0,30.05,SE,145,0.0,8.0,24,0.00,,,0.00,,2013-03-26 01:02:00,
2013-03-25 20:12:00,51.0,16.0,30.05,SE,145,0.0,8.0,24,0.00,,,0.00,,2013-03-26 01:12:00,
2013-03-25 20:22:00,49.0,16.0,30.07,SW,236,0.0,0.0,26,0.00,,,0.00,,2013-03-26 01:22:00,
2013-03-25 20:32:00,49.0,16.0,30.07,SW,236,0.0,0.0,26,0.00,,,0.00,,2013-03-26 01:32:00,
2013-03-25 20:42:00,49.0,16.0,30.07,SW,236,0.0,0.0,26,0.00,,,0.00,,2013-03-26 01:42:00,
2013-03-25 20:52:00,47.0,16.0,30.08,SE,127,0.0,0.0,28,0.00,,,0.00,,2013-03-26 01:52:00,
2013-03-25 21:02:00,47.0,16.0,30.08,SE,127,0.0,0.0,28,0.00,,,0.00,,2013-03-26 02:02:00,
2013-03-25 21:12:00,47.0,16.0,30.08,SE,127,0.0,0.0,28,0.00,,,0.00,,2013-03-26 02:12:00,
2013-03-25 21:22:00,45.0,14.0,30.08,NE,56,0.0,6.0,28,0.00,,,0.00,,2013-03-26 02:22:00,
2013-03-25 21:32:00,45.0,14.0,30.08,NE,56,0.0,6.0,28,0.00,,,0.00,,2013-03-26 02:32:00,
2013-03-25 21:43:00,45.0,14.0,30.08,NE,56,0.0,6.0,28,0.00,,,0.00,,2013-03-26 02:43:00,
2013-03-25 21:52:00,44.0,15.0,30.09,NNE,18,0.0,8.0,30,0.00,,,0.00,,2013-03-26 02:52:00,
2013-03-25 22:02:00,44.0,15.0,30.09,NNE,18,0.0,8.0,30,0.00,,,0.00,,2013-03-26 03:02:00,
2013-03-25 22:12:00,44.0,15.0,30.09,NNE,18,0.0,8.0,30,0.00,,,0.00,,2013-03-26 03:12:00,
2013-03-25 22:22:00,42.0,16.0,30.11,SE,140,0.0,2.0,34,0.00,,,0.00,,2013-03-26 03:22:00,
2013-03-25 22:33:00,42.0,16.0,30.11,SE,140,0.0,2.0,34,0.00,,,0.00,,2013-03-26 03:33:00,
2013-03-25 22:43:00,42.0,16.0,30.11,SE,140,0.0,2.0,34,0.00,,,0.00,,2013-03-26 03:43:00,
2013-03-25 22:53:00,41.0,15.0,30.11,ESE,117,0.0,2.0,35,0.00,,,0.00,,2013-03-26 03:53:00,
2013-03-25 23:03:00,41.0,15.0,30.11,ESE,117,0.0,2.0,35,0.00,,,0.00,,2013-03-26 04:03:00,
2013-03-25 23:12:00,41.0,15.0,30.11,ESE,117,0.0,2.0,35,0.00,,,0.00,,2013-03-26 04:12:00,
2013-03-25 23:23:00,40.0,15.0,30.14,ESE,102,0.0,0.0,36,0.00,,,0.00,,2013-03-26 04:23:00,
2013-03-25 23:32:00,40.0,15.0,30.14,ESE,102,0.0,0.0,36,0.00,,,0.00,,2013-03-26 04:32:00,
2013-03-25 23:43:00,40.0,15.0,30.14,ESE,102,0.0,0.0,36,0.00,,,0.00,,2013-03-26 04:43:00,
2013-03-25 23:52:00,39.0,15.0,30.17,ENE,59,0.0,0.0,37,0.00,,,0.00,,2013-03-26 04:52:00,